createdAt,value
2023-02-18T00:04:07.299Z,25.24
2023-02-18T00:24:07.431Z,25.24
2023-02-18T00:44:06.878Z,25.24
2023-02-18T01:04:07.265Z,25.24
2023-02-18T01:24:07.393Z,25.24
2023-02-18T01:44:07.400Z,25.25
2023-02-18T02:04:07.377Z,25.25
2023-02-18T02:24:07.378Z,25.25
2023-02-18T02:44:07.374Z,25.26
2023-02-18T03:24:07.362Z,25.27
2023-02-18T03:44:07.368Z,25.26
2023-02-18T04:04:06.609Z,25.27
2023-02-18T04:24:07.372Z,25.27
2023-02-18T04:44:06.798Z,25.28
2023-02-18T05:24:06.561Z,25.29
2023-02-18T05:44:07.310Z,25.29
2023-02-18T06:04:07.312Z,25.29
2023-02-18T06:24:06.535Z,25.3
2023-02-18T06:44:07.302Z,25.3
2023-02-18T07:24:07.280Z,25.31
2023-02-18T07:44:06.760Z,25.32
2023-02-18T08:04:07.326Z,25.32
2023-02-18T08:24:07.270Z,25.33
2023-02-18T08:44:07.261Z,25.34
2023-02-18T09:24:07.245Z,25.36
2023-02-18T09:44:07.244Z,25.36
2023-02-18T10:04:06.485Z,25.37
2023-02-18T10:24:07.230Z,25.38
2023-02-18T10:44:06.693Z,25.39
2023-02-18T11:04:07.132Z,25.39
2023-02-18T11:24:07.213Z,25.4
2023-02-18T11:44:07.205Z,25.41
2023-02-18T12:04:07.237Z,25.42
2023-02-18T12:24:07.196Z,25.43
2023-02-18T12:44:07.191Z,25.43
2023-02-18T13:04:07.184Z,25.44
2023-02-18T13:24:07.172Z,25.5
2023-02-18T13:44:07.168Z,25.51
2023-02-18T14:04:07.168Z,25.52
2023-02-18T14:24:07.189Z,25.53
2023-02-18T14:44:07.178Z,25.55
2023-02-18T15:04:07.148Z,25.55
2023-02-18T15:24:07.168Z,25.57
2023-02-18T15:44:07.139Z,25.54
2023-02-18T16:04:07.129Z,25.54
2023-02-18T16:24:07.126Z,25.55
2023-02-18T16:44:07.104Z,25.56
2023-02-18T17:04:06.386Z,25.57
2023-02-18T17:24:07.113Z,25.58
2023-02-18T17:44:07.089Z,25.59
2023-02-18T18:04:07.111Z,25.6
2023-02-18T18:24:07.099Z,25.61
2023-02-18T18:44:07.095Z,25.61
2023-02-18T19:04:07.130Z,25.62
2023-02-18T19:24:07.060Z,25.63
2023-02-18T19:44:07.067Z,25.64
2023-02-18T20:04:07.060Z,25.64
2023-02-18T20:24:07.044Z,25.65
2023-02-18T20:44:07.067Z,25.65
2023-02-18T21:04:07.065Z,25.66
2023-02-18T21:24:06.915Z,25.66
2023-02-18T21:44:07.019Z,25.67
2023-02-18T22:04:07.064Z,25.68
2023-02-18T22:24:07.021Z,25.69
2023-02-18T23:04:07.060Z,25.72
2023-02-18T23:24:06.999Z,25.73
2023-02-18T23:44:07.001Z,25.74
